Time;durP1;ratioP1;P1;durP2;ratioP2;P2;SDS_P1;SDS_P2;PMS_P1;PMS_P2;Temp;Humidity;BMP_temperature;BMP_pressure;BME280_temperature;BME280_humidity;BME280_pressure;Samples;Min_cycle;Max_cycle;Signal;HPM_P1;HPM_P2
2022/08/25 00:00:01;;;;;;;8.13;7.47;;;20.70;1.00;;;;;;6260582;28;20325;-56
2022/08/25 00:03:05;;;;;;;8.53;7.40;;;20.70;1.00;;;;;;6282654;28;20225;-55
2022/08/25 00:06:09;;;;;;;8.93;8.20;;;20.60;1.00;;;;;;6284294;28;20233;-56
2022/08/25 00:09:14;;;;;;;7.97;7.37;;;20.60;1.00;;;;;;6285102;28;20607;-56
2022/08/25 00:12:17;;;;;;;9.87;7.50;;;20.60;1.00;;;;;;6273608;28;20242;-56
2022/08/25 00:15:22;;;;;;;9.03;7.53;;;20.50;1.00;;;;;;6275227;28;20742;-55
2022/08/25 00:18:25;;;;;;;9.00;8.20;;;20.60;1.00;;;;;;6278549;28;20244;-55
2022/08/25 00:21:30;;;;;;;8.27;7.53;;;20.50;1.00;;;;;;6271496;28;20269;-54
2022/08/25 00:24:33;;;;;;;10.10;8.03;;;20.40;1.00;;;;;;6269609;28;20236;-55
2022/08/25 00:27:36;;;;;;;8.53;7.77;;;20.40;1.00;;;;;;6285944;28;20234;-54
2022/08/25 00:30:41;;;;;;;8.67;7.90;;;20.40;1.00;;;;;;6282535;28;20312;-55
2022/08/25 00:33:44;;;;;;;9.73;8.73;;;20.40;1.00;;;;;;6283651;28;20225;-56
2022/08/25 00:36:49;;;;;;;8.73;8.03;;;20.40;1.00;;;;;;6285508;28;20233;-55
2022/08/25 00:39:53;;;;;;;11.97;9.37;;;20.30;1.00;;;;;;6272503;28;20710;-55
2022/08/25 00:42:56;;;;;;;10.63;9.07;;;20.30;1.00;;;;;;6260319;28;20325;-56
2022/08/25 00:46:01;;;;;;;9.13;8.33;;;20.30;1.00;;;;;;6280525;28;20256;-56
2022/08/25 00:49:09;;;;;;;8.57;7.87;;;20.20;1.00;;;;;;6267655;28;20234;-54
2022/08/25 00:52:33;;;;;;;10.47;9.47;;;20.20;1.00;;;;;;6260523;28;20878;-55
2022/08/25 00:55:40;;;;;;;13.83;10.03;;;20.20;1.00;;;;;;6259422;28;20244;-56
2022/08/25 00:58:43;;;;;;;10.47;9.43;;;20.20;1.00;;;;;;6259222;28;20317;-55
2022/08/25 01:01:54;;;;;;;9.03;8.20;;;20.20;1.00;;;;;;6259143;28;20265;-56
2022/08/25 01:04:57;;;;;;;10.03;8.83;;;20.20;1.00;;;;;;6278844;28;20237;-56
2022/08/25 01:08:02;;;;;;;9.73;8.80;;;20.10;1.00;;;;;;6284057;28;20237;-55
2022/08/25 01:11:11;;;;;;;9.80;9.00;;;20.10;1.00;;;;;;6275781;28;20421;-55
2022/08/25 01:14:16;;;;;;;9.93;9.07;;;20.10;1.00;;;;;;6277248;28;20473;-55
2022/08/25 01:17:26;;;;;;;10.37;9.50;;;20.00;1.00;;;;;;6283222;28;20272;-56
2022/08/25 01:20:33;;;;;;;9.20;8.60;;;20.00;1.00;;;;;;6283691;28;20334;-54
2022/08/25 01:23:37;;;;;;;9.17;8.30;;;20.00;1.00;;;;;;6259530;28;20774;-55
2022/08/25 01:26:40;;;;;;;10.30;8.60;;;19.90;1.00;;;;;;6258964;28;20295;-54
2022/08/25 01:29:43;;;;;;;10.00;8.83;;;19.90;1.00;;;;;;6258373;28;20360;-55
2022/08/25 01:32:46;;;;;;;9.90;9.00;;;19.90;1.00;;;;;;6263014;28;20775;-55
2022/08/25 01:35:49;;;;;;;10.17;9.00;;;19.90;1.00;;;;;;6282586;28;20309;-55
2022/08/25 01:38:54;;;;;;;12.67;9.37;;;19.90;1.00;;;;;;6275976;28;20325;-54
2022/08/25 01:42:28;;;;;;;10.77;9.77;;;19.90;1.00;;;;;;6258447;28;20230;-55
2022/08/25 01:45:31;;;;;;;9.40;8.53;;;19.80;1.00;;;;;;6270408;28;20257;-55
2022/08/25 01:48:35;;;;;;;10.63;9.73;;;19.80;1.00;;;;;;6266493;28;20276;-55
2022/08/25 01:51:44;;;;;;;9.87;9.07;;;19.80;1.00;;;;;;6258989;28;20238;-54
2022/08/25 01:54:52;;;;;;;11.90;8.90;;;19.70;1.00;;;;;;6257969;28;20800;-56
2022/08/25 01:57:55;;;;;;;11.23;10.13;;;19.70;1.00;;;;;;6258706;28;20311;-55
2022/08/25 02:01:10;;;;;;;9.50;8.90;;;19.70;1.00;;;;;;6257285;28;20325;-55
2022/08/25 02:04:13;;;;;;;10.83;9.63;;;19.60;1.00;;;;;;6273662;28;20312;-54
2022/08/25 02:07:21;;;;;;;9.83;9.13;;;19.60;1.00;;;;;;6282570;28;20241;-54
2022/08/25 02:10:25;;;;;;;10.90;9.83;;;19.60;1.00;;;;;;6282171;28;20583;-54
2022/08/25 02:13:28;;;;;;;10.43;9.50;;;19.60;1.00;;;;;;6266785;28;20330;-55
2022/08/25 02:16:37;;;;;;;11.03;9.97;;;19.60;1.00;;;;;;6282102;28;20716;-55
2022/08/25 02:19:40;;;;;;;12.57;11.37;;;19.60;1.00;;;;;;6280988;28;20245;-56
2022/08/25 02:22:43;;;;;;;11.00;10.00;;;19.60;1.00;;;;;;6258251;28;20501;-56
2022/08/25 02:25:57;;;;;;;12.53;11.20;;;19.50;1.00;;;;;;6257086;28;20225;-55
2022/08/25 02:29:00;;;;;;;10.93;10.00;;;19.50;1.00;;;;;;6257326;28;20608;-52
2022/08/25 02:32:03;;;;;;;13.80;10.63;;;19.50;1.00;;;;;;6249961;28;20363;-54
2022/08/25 02:35:08;;;;;;;12.10;10.87;;;19.50;1.00;;;;;;6278481;28;20295;-55
2022/08/25 02:38:11;;;;;;;11.80;10.67;;;19.50;1.00;;;;;;6282437;28;20798;-55
2022/08/25 02:41:19;;;;;;;12.67;10.80;;;19.50;1.00;;;;;;6282185;28;20781;-55
2022/08/25 02:44:22;;;;;;;10.33;9.53;;;19.40;1.00;;;;;;6275506;28;20264;-55
2022/08/25 02:47:25;;;;;;;11.40;10.37;;;19.40;1.00;;;;;;6273440;28;20355;-55
2022/08/25 02:50:31;;;;;;;12.90;11.67;;;19.40;1.00;;;;;;6282235;28;20233;-55
2022/08/25 02:53:34;;;;;;;12.03;10.93;;;19.40;1.00;;;;;;6253160;28;20311;-56
2022/08/25 02:56:41;;;;;;;13.07;11.70;;;19.30;1.00;;;;;;6259148;28;20481;-56
2022/08/25 02:59:47;;;;;;;11.70;10.57;;;19.30;1.00;;;;;;6281635;28;20233;-56
2022/08/25 03:02:52;;;;;;;12.87;11.53;;;19.30;1.00;;;;;;6279196;28;20575;-56
2022/08/25 03:05:56;;;;;;;13.10;11.77;;;19.30;1.00;;;;;;6272089;28;20298;-56
2022/08/25 03:09:00;;;;;;;13.87;11.33;;;19.30;1.00;;;;;;6273138;28;20294;-56
2022/08/25 03:12:05;;;;;;;12.83;11.40;;;19.30;1.00;;;;;;6285053;28;20259;-54
2022/08/25 03:15:09;;;;;;;12.77;11.27;;;19.30;1.00;;;;;;6288700;28;20316;-55
2022/08/25 03:18:15;;;;;;;13.40;12.00;;;19.30;1.00;;;;;;6289969;28;20230;-56
2022/08/25 03:21:19;;;;;;;13.03;11.80;;;19.30;1.00;;;;;;6290634;28;20244;-56
2022/08/25 03:24:22;;;;;;;12.93;11.60;;;19.30;1.00;;;;;;6288150;28;20318;-54
2022/08/25 03:27:29;;;;;;;12.83;11.57;;;19.30;1.00;;;;;;6279629;28;20694;-55
2022/08/25 03:30:32;;;;;;;12.20;11.07;;;19.20;1.00;;;;;;6267326;28;20289;-56
2022/08/25 03:33:37;;;;;;;13.47;11.90;;;19.20;1.00;;;;;;6269313;28;20233;-54
2022/08/25 03:36:40;;;;;;;11.30;10.30;;;19.10;1.00;;;;;;6275520;28;20230;-54
2022/08/25 03:39:45;;;;;;;13.97;12.63;;;19.10;1.00;;;;;;6283315;28;20398;-57
2022/08/25 03:42:49;;;;;;;13.73;12.10;;;19.10;1.00;;;;;;6283041;28;20236;-54
2022/08/25 03:45:53;;;;;;;16.10;13.10;;;19.10;1.00;;;;;;6282471;28;20234;-55
2022/08/25 03:48:56;;;;;;;13.87;12.33;;;19.10;1.00;;;;;;6281177;28;20337;-55
2022/08/25 03:52:00;;;;;;;14.77;13.17;;;19.10;1.00;;;;;;6278490;28;20241;-55
2022/08/25 03:55:13;;;;;;;14.30;11.37;;;19.10;1.00;;;;;;6281723;28;20245;-55
2022/08/25 03:58:17;;;;;;;12.73;11.73;;;19.10;1.00;;;;;;6282793;28;20745;-54
2022/08/25 04:01:20;;;;;;;13.67;12.23;;;19.10;1.00;;;;;;6282645;28;20250;-55
2022/08/25 04:04:24;;;;;;;14.47;13.07;;;19.00;1.00;;;;;;6281114;28;20757;-54
2022/08/25 04:07:27;;;;;;;14.27;12.27;;;19.00;1.00;;;;;;6275231;28;20324;-56
2022/08/25 04:10:31;;;;;;;12.13;10.97;;;19.00;1.00;;;;;;6278870;28;20319;-56
2022/08/25 04:13:36;;;;;;;16.33;14.60;;;19.00;1.00;;;;;;6272679;28;20256;-55
2022/08/25 04:16:39;;;;;;;15.90;14.40;;;19.00;1.00;;;;;;6276302;28;20246;-56
2022/08/25 04:19:42;;;;;;;16.33;13.80;;;19.00;1.00;;;;;;6272377;28;20265;-55
2022/08/25 04:22:45;;;;;;;14.63;13.20;;;19.00;1.00;;;;;;6279533;28;20291;-55
2022/08/25 04:25:48;;;;;;;16.30;14.70;;;19.00;1.00;;;;;;6272791;28;20369;-56
2022/08/25 04:28:53;;;;;;;20.27;17.50;;;19.00;1.00;;;;;;6279756;28;20229;-54
2022/08/25 04:31:56;;;;;;;18.40;16.53;;;19.00;1.00;;;;;;6273305;28;20701;-53
2022/08/25 04:34:59;;;;;;;20.87;17.57;;;19.00;1.00;;;;;;6273798;28;20718;-56
2022/08/25 04:38:03;;;;;;;25.00;18.53;;;19.00;1.00;;;;;;6274799;28;20244;-56
2022/08/25 04:41:11;;;;;;;21.27;18.10;;;19.00;1.00;;;;;;6280013;28;20233;-54
2022/08/25 04:44:18;;;;;;;22.33;17.97;;;19.10;1.00;;;;;;6284054;28;20668;-55
2022/08/25 04:47:21;;;;;;;25.03;19.33;;;19.10;1.00;;;;;;6281852;28;20728;-55
2022/08/25 04:50:24;;;;;;;20.10;18.07;;;19.10;1.00;;;;;;6283951;28;20237;-54
2022/08/25 04:53:28;;;;;;;22.73;18.43;;;19.10;1.00;;;;;;6277520;28;20294;-55
2022/08/25 04:56:32;;;;;;;26.53;20.00;;;19.10;1.00;;;;;;6282497;28;20237;-56
2022/08/25 04:59:38;;;;;;;20.77;18.13;;;19.10;1.00;;;;;;6282275;28;20655;-55
2022/08/25 05:02:41;;;;;;;20.67;18.47;;;19.20;1.00;;;;;;6283170;28;20319;-54
2022/08/25 05:05:44;;;;;;;21.40;18.37;;;19.20;1.00;;;;;;6281984;28;20238;-55
2022/08/25 05:08:47;;;;;;;20.93;18.93;;;19.20;1.00;;;;;;6282013;28;20317;-54
2022/08/25 05:11:50;;;;;;;19.90;18.07;;;19.20;1.00;;;;;;6281771;28;20371;-55
2022/08/25 05:14:54;;;;;;;20.90;17.93;;;19.20;1.00;;;;;;6281877;28;20622;-56
2022/08/25 05:17:59;;;;;;;18.87;16.87;;;19.30;1.00;;;;;;6283245;28;20749;-55
2022/08/25 05:21:04;;;;;;;18.23;16.53;;;19.30;1.00;;;;;;6281011;28;20311;-55
2022/08/25 05:24:10;;;;;;;18.10;15.90;;;19.30;1.00;;;;;;6281678;28;20714;-54
2022/08/25 05:27:13;;;;;;;17.73;16.03;;;19.40;1.00;;;;;;6282975;28;20239;-55
2022/08/25 05:30:17;;;;;;;19.33;17.53;;;19.50;1.00;;;;;;6281186;28;20375;-55
2022/08/25 05:33:27;;;;;;;18.27;16.67;;;19.40;1.00;;;;;;6280920;28;20336;-60
2022/08/25 05:36:35;;;;;;;19.53;17.43;;;19.50;1.00;;;;;;6281568;28;20233;-54
2022/08/25 05:39:38;;;;;;;21.17;19.07;;;19.60;1.00;;;;;;6281308;28;20241;-55
2022/08/25 05:42:43;;;;;;;21.23;17.67;;;19.60;1.00;;;;;;6276880;28;20323;-54
2022/08/25 05:45:47;;;;;;;19.83;17.77;;;19.60;1.00;;;;;;6281975;28;21640;-56
2022/08/25 05:48:50;;;;;;;25.20;18.50;;;19.60;1.00;;;;;;6282236;28;20278;-55
2022/08/25 05:51:53;;;;;;;21.47;19.20;;;19.70;1.00;;;;;;6277660;28;20501;-55
2022/08/25 05:54:56;;;;;;;21.70;17.93;;;19.70;1.00;;;;;;6280277;28;20394;-57
2022/08/25 05:58:01;;;;;;;19.03;17.07;;;19.70;1.00;;;;;;6283204;28;20239;-56
2022/08/25 06:04:23;;;;;;;20.23;17.53;;;19.90;1.00;;;;;;6281620;28;20241;-55
2022/08/25 06:07:26;;;;;;;20.60;18.37;;;20.00;1.00;;;;;;6283291;28;20263;-55
2022/08/25 06:10:29;;;;;;;19.80;17.70;;;20.10;1.00;;;;;;6276534;28;20273;-55
2022/08/25 06:13:32;;;;;;;23.90;19.67;;;20.10;1.00;;;;;;6277354;28;20320;-56
2022/08/25 06:16:37;;;;;;;24.23;20.70;;;20.10;1.00;;;;;;6282439;28;20233;-56
2022/08/25 06:19:40;;;;;;;29.30;20.43;;;20.20;1.00;;;;;;6276285;28;20772;-55
2022/08/25 06:22:43;;;;;;;26.73;21.00;;;20.30;1.00;;;;;;6282758;28;20255;-54
2022/08/25 06:25:49;;;;;;;29.13;23.93;;;20.30;1.00;;;;;;6281540;28;20322;-55
2022/08/25 06:28:53;;;;;;;31.17;23.90;;;20.40;1.00;;;;;;6280818;28;20696;-55
2022/08/25 06:31:57;;;;;;;28.87;22.93;;;20.40;1.00;;;;;;6282715;28;20229;-55
2022/08/25 06:35:02;;;;;;;28.77;22.27;;;20.40;1.00;;;;;;6276626;28;20702;-55
2022/08/25 06:38:05;;;;;;;31.00;25.13;;;20.40;1.00;;;;;;6278767;28;20340;-55
2022/08/25 06:41:11;;;;;;;32.17;23.77;;;20.50;1.00;;;;;;6283024;28;20613;-55
2022/08/25 06:44:14;;;;;;;28.77;22.17;;;20.50;1.00;;;;;;6282465;28;20367;-55
2022/08/25 06:47:19;;;;;;;29.30;22.20;;;20.40;1.00;;;;;;6284048;28;20229;-55
2022/08/25 06:50:23;;;;;;;25.07;20.73;;;20.60;1.00;;;;;;6287214;28;20241;-56
2022/08/25 06:53:27;;;;;;;26.63;20.70;;;20.60;1.00;;;;;;6279411;28;20241;-55
2022/08/25 06:56:30;;;;;;;23.73;20.50;;;20.60;1.00;;;;;;6279228;28;20237;-55
2022/08/25 06:59:33;;;;;;;22.20;19.90;;;20.70;1.00;;;;;;6286039;28;20229;-55
2022/08/25 07:02:38;;;;;;;23.83;19.50;;;20.90;1.00;;;;;;6285170;28;20710;-55
2022/08/25 07:05:41;;;;;;;24.27;20.43;;;20.90;1.00;;;;;;6287609;28;20354;-54
2022/08/25 07:08:46;;;;;;;22.30;19.30;;;20.90;1.00;;;;;;6278632;28;20225;-56
2022/08/25 07:11:49;;;;;;;19.73;17.53;;;21.00;1.00;;;;;;6287087;28;20290;-55
2022/08/25 07:14:52;;;;;;;22.83;19.20;;;21.10;1.00;;;;;;6286796;28;20512;-55
2022/08/25 07:18:16;;;;;;;26.10;20.20;;;21.10;1.00;;;;;;6280188;28;20694;-55
2022/08/25 07:21:19;;;;;;;23.67;19.10;;;21.30;1.00;;;;;;6285233;28;20702;-55
2022/08/25 07:24:30;;;;;;;22.87;20.40;;;21.50;1.00;;;;;;6285444;28;20586;-55
2022/08/25 07:27:33;;;;;;;25.40;19.53;;;21.60;1.00;;;;;;6284908;28;20335;-56
2022/08/25 07:30:36;;;;;;;25.83;20.37;;;21.70;1.00;;;;;;6286554;28;20723;-56
2022/08/25 07:35:14;;;;;;;20.97;18.67;;;21.80;1.00;;;;;;6286643;28;20240;-56
2022/08/25 07:37:12;;;;;;;23.77;20.47;;;21.80;1.00;;;;;;6278423;28;20245;-55
2022/08/25 07:40:28;;;;;;;25.27;21.43;;;21.90;1.00;;;;;;6285541;28;20272;-56
2022/08/25 07:43:31;;;;;;;24.87;19.63;;;21.90;1.00;;;;;;6271234;28;20508;-54
2022/08/25 07:46:35;;;;;;;24.33;18.97;;;22.00;1.00;;;;;;6285794;28;20245;-56
2022/08/25 07:49:40;;;;;;;25.17;21.20;;;22.20;1.00;;;;;;6285872;28;20507;-57
2022/08/25 07:52:43;;;;;;;26.27;20.17;;;22.30;1.00;;;;;;6284417;28;20597;-55
2022/08/25 07:55:57;;;;;;;30.27;19.77;;;22.50;1.00;;;;;;6285248;28;20232;-55
2022/08/25 07:59:00;;;;;;;22.53;19.60;;;22.50;1.00;;;;;;6285591;28;20237;-55
2022/08/25 08:02:03;;;;;;;30.10;19.63;;;22.70;1.00;;;;;;6282953;28;20242;-55
2022/08/25 08:05:10;;;;;;;25.40;18.83;;;22.70;1.00;;;;;;6285262;28;20329;-57
2022/08/25 08:08:13;;;;;;;24.37;18.37;;;22.80;1.00;;;;;;6284176;28;20599;-55
2022/08/25 08:11:17;;;;;;;20.90;18.27;;;22.90;1.00;;;;;;6286367;28;20253;-56
2022/08/25 08:14:20;;;;;;;23.53;19.97;;;23.00;1.00;;;;;;6286122;28;20259;-57
2022/08/25 08:17:23;;;;;;;27.73;21.23;;;23.10;1.00;;;;;;6285328;28;20405;-56
2022/08/25 08:20:30;;;;;;;22.47;18.53;;;23.20;1.00;;;;;;6279918;28;20237;-55
2022/08/25 08:23:48;;;;;;;25.77;19.80;;;23.40;1.00;;;;;;6285067;28;20259;-55
2022/08/25 08:26:54;;;;;;;26.17;20.83;;;23.60;1.00;;;;;;6280457;28;20220;-55
2022/08/25 08:30:01;;;;;;;23.20;19.57;;;23.70;1.00;;;;;;6284725;28;20280;-59
2022/08/25 08:33:05;;;;;;;24.07;20.03;;;23.70;1.00;;;;;;6286118;28;20230;-55
2022/08/25 08:36:15;;;;;;;23.87;19.60;;;23.90;1.00;;;;;;6279636;28;20694;-56
2022/08/25 08:39:18;;;;;;;19.33;17.50;;;24.00;1.00;;;;;;6276669;28;20242;-56
2022/08/25 08:42:50;;;;;;;20.00;17.37;;;24.30;1.00;;;;;;6282820;28;20758;-55
2022/08/25 08:45:53;;;;;;;19.03;16.67;;;24.40;1.00;;;;;;6276217;28;20410;-57
2022/08/25 08:49:01;;;;;;;19.07;17.20;;;24.70;1.00;;;;;;6284045;28;20263;-55
2022/08/25 08:52:19;;;;;;;17.60;15.77;;;24.90;1.00;;;;;;6285154;28;20233;-55
2022/08/25 08:55:30;;;;;;;21.07;16.13;;;24.90;1.00;;;;;;6283303;28;20248;-55
2022/08/25 08:58:41;;;;;;;16.70;14.93;;;25.10;1.00;;;;;;6277125;28;20733;-54
2022/08/25 09:01:48;;;;;;;17.00;15.20;;;25.00;1.00;;;;;;6283522;28;20233;-56
2022/08/25 09:05:01;;;;;;;21.80;16.37;;;24.90;1.00;;;;;;6282870;28;20650;-56
2022/08/25 09:08:11;;;;;;;17.20;14.17;;;24.90;1.00;;;;;;6281548;28;20233;-56
2022/08/25 09:11:26;;;;;;;16.87;15.37;;;24.80;1.00;;;;;;6283367;28;20233;-54
2022/08/25 09:14:42;;;;;;;15.47;13.97;;;24.60;1.00;;;;;;6276419;28;20234;-56
2022/08/25 09:18:12;;;;;;;18.97;14.73;;;24.60;1.00;;;;;;6279667;28;20302;-55
2022/08/25 09:21:25;;;;;;;23.03;16.80;;;24.80;1.00;;;;;;6282893;28;20387;-53
2022/08/25 09:24:40;;;;;;;13.93;12.70;;;24.80;1.00;;;;;;6283116;28;20617;-55
2022/08/25 09:27:54;;;;;;;14.83;13.50;;;24.70;1.00;;;;;;6282386;28;20757;-55
2022/08/25 09:31:00;;;;;;;19.53;15.20;;;24.90;1.00;;;;;;6279161;28;20530;-55
2022/08/25 09:34:06;;;;;;;16.93;15.47;;;25.10;1.00;;;;;;6279172;28;20230;-56
2022/08/25 09:37:10;;;;;;;22.50;16.33;;;25.00;1.00;;;;;;6281200;28;20265;-55
2022/08/25 09:40:14;;;;;;;16.60;15.07;;;24.90;1.00;;;;;;6281733;28;20298;-55
2022/08/25 09:43:23;;;;;;;15.20;13.47;;;24.80;1.00;;;;;;6282018;28;20234;-55
2022/08/25 09:46:28;;;;;;;13.83;12.53;;;24.70;1.00;;;;;;6281862;28;20702;-55
2022/08/25 09:49:35;;;;;;;14.20;12.37;;;24.80;1.00;;;;;;6280989;28;20265;-55
2022/08/25 09:52:40;;;;;;;15.07;13.47;;;24.90;1.00;;;;;;6274562;28;20323;-55
2022/08/25 09:55:47;;;;;;;12.53;11.63;;;25.10;1.00;;;;;;6282308;28;20241;-56
2022/08/25 09:58:50;;;;;;;14.30;12.33;;;25.30;1.00;;;;;;6281623;28;20248;-55
2022/08/25 10:01:56;;;;;;;13.50;12.37;;;25.50;1.00;;;;;;6282153;28;20424;-56
2022/08/25 10:05:16;;;;;;;12.97;11.63;;;25.70;1.00;;;;;;6282287;28;20225;-56
2022/08/25 10:08:30;;;;;;;11.80;10.60;;;25.80;1.00;;;;;;6276556;28;20303;-56
2022/08/25 10:11:51;;;;;;;11.77;10.67;;;25.90;1.00;;;;;;6268187;28;20253;-55
2022/08/25 10:14:59;;;;;;;13.50;11.93;;;25.80;1.00;;;;;;6277877;28;20225;-55
2022/08/25 10:18:22;;;;;;;11.53;10.53;;;25.70;1.00;;;;;;6272911;28;20324;-56
2022/08/25 10:21:27;;;;;;;11.97;10.50;;;25.60;1.00;;;;;;6253999;28;20246;-55
2022/08/25 10:24:31;;;;;;;12.27;11.07;;;25.70;1.00;;;;;;6282027;28;20263;-58
2022/08/25 10:27:45;;;;;;;12.87;11.73;;;25.80;1.00;;;;;;6283581;28;20336;-57
2022/08/25 10:31:03;;;;;;;14.67;11.90;;;25.70;1.00;;;;;;6285666;28;20301;-56
2022/08/25 10:34:30;;;;;;;11.90;10.70;;;25.70;1.00;;;;;;6281909;28;20233;-56
2022/08/25 10:37:47;;;;;;;10.87;10.07;;;25.60;1.00;;;;;;6281662;28;20245;-57
2022/08/25 10:40:56;;;;;;;12.07;10.90;;;25.80;1.00;;;;;;6281778;28;20659;-57
2022/08/25 10:45:41;;;;;;;10.63;9.33;;;25.80;1.00;;;;;;6278998;28;20332;-60
2022/08/25 10:47:51;;;;;;;10.27;9.47;;;25.90;1.00;;;;;;6282356;28;20237;-55
2022/08/25 10:51:00;;;;;;;10.73;9.73;;;26.30;1.00;;;;;;6280397;28;20317;-57
2022/08/25 10:54:11;;;;;;;12.07;10.80;;;26.40;1.00;;;;;;6281556;28;20344;-56
2022/08/25 10:57:22;;;;;;;10.97;9.20;;;26.60;1.00;;;;;;6281516;28;20757;-56
2022/08/25 11:00:34;;;;;;;15.70;10.17;;;26.80;1.00;;;;;;6275287;28;20336;-56
2022/08/25 11:03:48;;;;;;;10.00;9.10;;;26.90;1.00;;;;;;6274181;28;20253;-56
2022/08/25 11:06:59;;;;;;;11.47;8.63;;;27.00;1.00;;;;;;6273411;28;20434;-56
2022/08/25 11:10:10;;;;;;;11.00;8.97;;;27.10;1.00;;;;;;6268249;28;20245;-54
2022/08/25 11:13:19;;;;;;;13.53;9.80;;;27.20;1.00;;;;;;6282181;28;20329;-56
2022/08/25 11:16:33;;;;;;;11.37;9.43;;;27.20;1.00;;;;;;6281048;28;20241;-54
2022/08/25 11:19:43;;;;;;;13.73;10.50;;;27.10;1.00;;;;;;6272254;28;20728;-54
2022/08/25 11:22:52;;;;;;;15.87;8.33;;;27.20;1.00;;;;;;6281212;28;20726;-55
2022/08/25 11:26:00;;;;;;;17.83;9.20;;;27.40;1.00;;;;;;6280948;28;20307;-55
2022/08/25 11:29:09;;;;;;;13.90;8.63;;;27.60;1.00;;;;;;6279092;28;20230;-55
2022/08/25 11:32:21;;;;;;;10.60;8.43;;;27.80;1.00;;;;;;6282881;28;20229;-56
2022/08/25 11:35:29;;;;;;;14.33;9.13;;;27.80;1.00;;;;;;6280308;28;20245;-55
2022/08/25 11:38:46;;;;;;;11.63;8.63;;;27.80;1.00;;;;;;6276692;28;20793;-55
2022/08/25 11:42:04;;;;;;;16.63;8.30;;;27.90;1.00;;;;;;6279434;28;21290;-55
2022/08/25 11:45:22;;;;;;;9.80;8.60;;;27.90;1.00;;;;;;6285585;28;20217;-55
2022/08/25 11:48:38;;;;;;;12.20;9.03;;;27.80;1.00;;;;;;6281798;28;20849;-56
2022/08/25 11:51:46;;;;;;;17.53;9.67;;;27.70;1.00;;;;;;6278924;28;20321;-55
2022/08/25 11:54:51;;;;;;;13.03;8.33;;;27.80;1.00;;;;;;6276401;28;20488;-55
2022/08/25 11:58:17;;;;;;;14.27;8.53;;;27.90;1.00;;;;;;6280637;28;20634;-55
2022/08/25 12:02:00;;;;;;;13.77;7.80;;;27.90;1.00;;;;;;6282877;28;20242;-56
2022/08/25 12:05:32;;;;;;;15.10;9.13;;;28.00;1.00;;;;;;6281714;28;20241;-56
2022/08/25 12:09:14;;;;;;;11.30;7.87;;;28.10;1.00;;;;;;6277952;28;20236;-55
2022/08/25 12:12:30;;;;;;;14.30;8.70;;;28.10;1.00;;;;;;6261954;28;20247;-56
2022/08/25 12:15:50;;;;;;;20.67;9.03;;;28.20;1.00;;;;;;6281770;28;20756;-55
2022/08/25 12:19:27;;;;;;;15.50;8.17;;;28.20;1.00;;;;;;6283851;28;20298;-55
2022/08/25 12:22:58;;;;;;;11.07;7.83;;;28.40;1.00;;;;;;6282824;28;20238;-57
2022/08/25 12:26:09;;;;;;;14.90;8.93;;;28.50;1.00;;;;;;6280087;28;20241;-56
2022/08/25 12:29:16;;;;;;;14.57;9.00;;;28.60;1.00;;;;;;6281877;28;20686;-55
2022/08/25 12:32:48;;;;;;;9.40;8.03;;;28.50;1.00;;;;;;6281902;28;20763;-55
2022/08/25 12:35:56;;;;;;;18.73;9.30;;;28.60;1.00;;;;;;6273108;28;20233;-56
2022/08/25 12:39:20;;;;;;;16.77;9.63;;;28.70;1.00;;;;;;6284457;28;20679;-56
2022/08/25 12:42:32;;;;;;;22.23;10.27;;;28.80;1.00;;;;;;6279863;28;20233;-55
2022/08/25 12:45:42;;;;;;;9.83;7.43;;;29.10;1.00;;;;;;6283830;28;20232;-56
2022/08/25 12:48:57;;;;;;;7.70;6.80;;;29.20;1.00;;;;;;6279156;28;20700;-55
2022/08/25 12:52:06;;;;;;;11.55;7.30;;;29.20;1.00;;;;;;6282599;28;20237;-55
2022/08/25 12:55:11;;;;;;;14.30;6.50;;;29.10;1.00;;;;;;6283088;28;20383;-56
2022/08/25 12:58:15;;;;;;;13.45;7.95;;;29.00;1.00;;;;;;6276683;28;20348;-56
2022/08/25 13:01:31;;;;;;;12.35;8.90;;;29.00;1.00;;;;;;6282409;28;20229;-56
2022/08/25 13:05:01;;;;;;;15.43;8.48;;;28.90;1.00;;;;;;6278714;28;20765;-57
2022/08/25 13:08:28;;;;;;;11.98;8.88;;;28.70;1.00;;;;;;6276967;28;20225;-55
2022/08/25 13:11:42;;;;;;;12.17;7.97;;;28.50;1.00;;;;;;6275028;28;20294;-59
2022/08/25 13:14:53;;;;;;;12.97;7.97;;;28.40;1.00;;;;;;6283066;28;20241;-56
2022/08/25 13:18:12;;;;;;;10.80;7.00;;;28.50;1.00;;;;;;6279046;28;20268;-55
2022/08/25 13:21:18;;;;;;;13.37;7.43;;;28.70;1.00;;;;;;6281608;28;20730;-55
2022/08/25 13:24:28;;;;;;;11.93;6.65;;;29.00;1.00;;;;;;6282996;28;20265;-56
2022/08/25 13:27:35;;;;;;;12.02;6.78;;;29.40;1.00;;;;;;6283422;28;20771;-55
2022/08/25 13:30:38;;;;;;;11.23;6.97;;;29.40;1.00;;;;;;6282390;28;20378;-56
2022/08/25 13:33:51;;;;;;;13.47;7.47;;;29.40;1.00;;;;;;6282605;28;20233;-53
2022/08/25 13:40:24;;;;;;;10.50;7.00;;;29.00;1.00;;;;;;6281895;28;20291;-56
2022/08/25 13:43:29;;;;;;;10.77;6.50;;;28.80;1.00;;;;;;6282587;28;20237;-56
2022/08/25 13:46:32;;;;;;;12.67;8.17;;;28.70;1.00;;;;;;6282761;28;20236;-55
2022/08/25 13:49:38;;;;;;;8.50;7.67;;;28.60;1.00;;;;;;6273489;28;20242;-55
2022/08/25 13:52:41;;;;;;;15.27;9.00;;;28.60;1.00;;;;;;6282642;28;20631;-56
2022/08/25 13:55:50;;;;;;;13.83;7.77;;;28.70;1.00;;;;;;6281643;28;20244;-56
2022/08/25 13:58:57;;;;;;;13.80;7.50;;;28.80;1.00;;;;;;6274068;28;20506;-56
2022/08/25 14:02:00;;;;;;;11.32;6.88;;;28.70;1.00;;;;;;6281276;28;20234;-55
2022/08/25 14:05:03;;;;;;;14.70;6.83;;;28.70;1.00;;;;;;6280702;28;20229;-54
2022/08/25 14:08:30;;;;;;;13.70;7.07;;;28.60;1.00;;;;;;6275713;28;20236;-55
2022/08/25 14:11:42;;;;;;;17.05;7.63;;;28.50;1.00;;;;;;6274189;28;20241;-55
2022/08/25 14:15:02;;;;;;;8.50;6.73;;;28.50;1.00;;;;;;6278040;28;20222;-55
2022/08/25 14:18:08;;;;;;;9.60;6.77;;;28.60;1.00;;;;;;6275461;28;20389;-55
2022/08/25 14:21:19;;;;;;;9.17;6.73;;;28.90;1.00;;;;;;6277538;28;20745;-55
2022/08/25 14:24:23;;;;;;;9.50;6.50;;;29.30;1.00;;;;;;6271943;28;20236;-55
2022/08/25 14:27:30;;;;;;;7.60;6.70;;;29.40;1.00;;;;;;6280472;28;20300;-55
2022/08/25 14:30:42;;;;;;;18.55;6.72;;;29.40;1.00;;;;;;6272885;28;20317;-56
2022/08/25 14:33:53;;;;;;;15.75;6.68;;;29.20;1.00;;;;;;6280270;28;20729;-55
2022/08/25 14:36:58;;;;;;;14.73;6.93;;;29.20;1.00;;;;;;6281547;28;20229;-54
2022/08/25 14:40:01;;;;;;;10.95;6.85;;;29.10;1.00;;;;;;6277275;28;20238;-56
2022/08/25 14:43:05;;;;;;;12.88;8.55;;;29.10;1.00;;;;;;6277360;28;20791;-55
2022/08/25 14:46:18;;;;;;;14.02;8.80;;;29.00;1.00;;;;;;6280218;28;20229;-55
2022/08/25 14:49:25;;;;;;;15.88;8.65;;;29.00;1.00;;;;;;6277268;28;20233;-56
2022/08/25 14:52:30;;;;;;;11.70;7.43;;;29.20;1.00;;;;;;6283346;28;20229;-55
2022/08/25 14:55:33;;;;;;;12.88;6.53;;;29.40;1.00;;;;;;6279847;28;20658;-55
2022/08/25 14:58:37;;;;;;;9.70;6.18;;;29.50;1.00;;;;;;6278993;28;20609;-56
2022/08/25 15:02:06;;;;;;;11.40;6.40;;;29.50;1.00;;;;;;6279442;28;20602;-55
2022/08/25 15:05:12;;;;;;;8.45;6.10;;;29.60;1.00;;;;;;6276706;28;20229;-55
2022/08/25 15:11:38;;;;;;;10.73;6.80;;;29.70;1.00;;;;;;6283276;28;20240;-55
2022/08/25 15:14:43;;;;;;;11.65;6.82;;;29.70;1.00;;;;;;6285482;28;20238;-56
2022/08/25 15:17:49;;;;;;;12.75;6.82;;;29.70;1.00;;;;;;6270546;28;20383;-55
2022/08/25 15:20:52;;;;;;;12.15;6.38;;;29.70;1.00;;;;;;6284672;28;20248;-55
2022/08/25 15:23:58;;;;;;;12.27;6.85;;;29.50;1.00;;;;;;6285943;28;20225;-54
2022/08/25 15:27:04;;;;;;;13.25;6.57;;;29.50;1.00;;;;;;6281173;28;20249;-55
2022/08/25 15:30:18;;;;;;;11.52;6.60;;;29.40;1.00;;;;;;6283761;28;20280;-55
2022/08/25 15:33:22;;;;;;;15.13;6.45;;;29.30;1.00;;;;;;6280040;28;20233;-55
2022/08/25 15:36:26;;;;;;;10.23;6.40;;;29.10;1.00;;;;;;6280080;28;20248;-55
2022/08/25 15:39:29;;;;;;;9.02;7.15;;;29.10;1.00;;;;;;6270954;28;20317;-55
2022/08/25 15:42:32;;;;;;;10.90;6.97;;;28.90;1.00;;;;;;6280974;28;20328;-56
2022/08/25 15:45:36;;;;;;;9.43;6.77;;;28.90;1.00;;;;;;6278449;28;20305;-55
2022/08/25 15:48:41;;;;;;;9.47;6.43;;;28.90;1.00;;;;;;6284293;28;20276;-56
2022/08/25 15:51:44;;;;;;;20.77;8.38;;;28.90;1.00;;;;;;6284328;28;20675;-55
2022/08/25 15:54:50;;;;;;;11.63;7.77;;;28.90;1.00;;;;;;6276556;28;20237;-56
2022/08/25 15:57:52;;;;;;;10.73;7.20;;;28.70;1.00;;;;;;6279168;28;20229;-54
2022/08/25 16:00:59;;;;;;;11.63;7.63;;;28.60;1.00;;;;;;6284246;28;20515;-55
2022/08/25 16:04:04;;;;;;;10.70;6.60;;;28.50;1.00;;;;;;6280285;28;20317;-55
2022/08/25 16:07:07;;;;;;;17.67;7.50;;;28.40;1.00;;;;;;6281051;28;20320;-54
2022/08/25 16:10:15;;;;;;;16.00;7.17;;;28.30;1.00;;;;;;6270789;28;20328;-54
2022/08/25 16:13:18;;;;;;;15.03;7.23;;;28.20;1.00;;;;;;6277415;28;20464;-55
2022/08/25 16:16:22;;;;;;;14.43;8.13;;;28.10;1.00;;;;;;6279222;28;20314;-55
2022/08/25 16:19:36;;;;;;;12.93;7.77;;;27.90;1.00;;;;;;6283363;28;20865;-55
2022/08/25 16:22:42;;;;;;;11.07;6.50;;;27.90;1.00;;;;;;6275394;28;20230;-54